To NAV CANADA Home Page Login to a new session Search on AWWS site Feedback and Comments Disclaimer Vers la page française équivalente Tips FAQ What's new on the site To the Forecasts and Observations / NOTAM section To "File a Flight Plan" website Publications and other links Update of the User's profile FIC Telephone Numbers My Weather Data Folder Route Weather Data Regional Weather Data Local Weather Data To the Forecasts and Observations / NOTAM section
Request Generated 09/02/2015 at 02:19:50 UTC . Weather information available at that time is displayed.

METAR/TAF

THOMPSON/MB    

METAR CYTH 020200Z 08004KT 15SM SCT150 16/14 A2973 RMK AC3 SLP073
DENSITY ALT 1200FT=
METAR CYTH 020100Z 07004KT 15SM SCT150 SCT210 18/14 A2971 RMK AC3CI1
SLP068 DENSITY ALT 1400FT=
METAR CYTH 020000Z 08005KT 040V140 15SM FEW015 SCT120 BKN210 20/14
A2971 RMK SC1AC3CI1 SLP068 DENSITY ALT 1600FT=

TAF CYTH 020038Z 0201/0213 08005KT P6SM FEW015 SCT120 BKN210
FM021000 07005KT P6SM FEW030 PROB40 0210/0213 1/2SM FG
RMK NXT FCST BY 020700Z=
Your time UTC time
Weather data provided by Environment Canada and NAV CANADA